Time;durP1;ratioP1;P1;durP2;ratioP2;P2;SDS_P1;SDS_P2;PMS_P1;PMS_P2;Temp;Humidity;BMP_temperature;BMP_pressure;BME280_temperature;BME280_humidity;BME280_pressure;Samples;Min_cycle;Max_cycle;Signal;HPM_P1;HPM_P2
2021/12/10 00:05:41;;;;;;;23.20;15.00;;;;;;;-2.36;84.46;98321.13;435418;1312;142546;-57
2021/12/10 00:15:47;;;;;;;27.60;17.40;;;;;;;-2.35;84.43;98315.27;430893;1313;142281;-58
2021/12/10 00:25:54;;;;;;;26.40;17.20;;;;;;;-2.33;84.45;98301.83;419818;1312;142467;-58
2021/12/10 00:36:00;;;;;;;29.80;18.20;;;;;;;-2.32;84.62;98263.91;433448;1312;141986;-59
2021/12/10 00:46:06;;;;;;;30.10;18.00;;;;;;;-2.28;84.55;98253.33;435517;1313;140752;-60
2021/12/10 00:56:12;;;;;;;30.00;19.40;;;;;;;-2.24;84.52;98257.33;433713;1313;142225;-59
2021/12/10 01:06:21;;;;;;;24.70;16.30;;;;;;;-2.27;84.35;98251.41;423452;1313;142378;-59
2021/12/10 01:26:58;;;;;;;24.60;15.90;;;;;;;-2.30;84.87;98224.77;419604;1313;141514;-59
2021/12/10 01:37:05;;;;;;;26.40;16.00;;;;;;;-2.28;84.80;98227.28;427056;1315;142438;-58
2021/12/10 01:47:14;;;;;;;27.60;16.40;;;;;;;-2.27;84.79;98210.11;423077;1308;142337;-59
2021/12/10 01:57:22;;;;;;;28.70;17.30;;;;;;;-2.26;84.75;98197.70;418713;1312;143088;-59
2021/12/10 02:07:29;;;;;;;28.80;18.20;;;;;;;-2.29;84.89;98183.41;434740;1313;142873;-60
2021/12/10 02:17:37;;;;;;;31.00;17.50;;;;;;;-2.28;84.99;98163.49;435410;1312;142005;-60
2021/12/10 02:27:43;;;;;;;23.60;16.90;;;;;;;-2.27;85.12;98161.23;433455;1313;142149;-59
2021/12/10 02:37:49;;;;;;;35.10;18.90;;;;;;;-2.25;85.19;98148.98;432024;1312;141274;-60
2021/12/10 02:47:56;;;;;;;39.40;19.40;;;;;;;-2.22;85.19;98138.10;434684;1313;143262;-60
2021/12/10 02:58:06;;;;;;;32.10;20.80;;;;;;;-2.22;85.43;98138.09;434280;1309;141865;-59
2021/12/10 03:08:12;;;;;;;32.00;19.20;;;;;;;-2.18;85.42;98139.52;434976;1313;143980;-60
2021/12/10 03:18:19;;;;;;;32.50;18.00;;;;;;;-2.15;85.74;98139.20;427589;1315;141234;-59
2021/12/10 03:28:25;;;;;;;28.80;17.00;;;;;;;-2.17;85.53;98141.86;434873;1313;349274;-60
2021/12/10 03:38:32;;;;;;;31.30;17.30;;;;;;;-2.15;85.75;98142.48;431286;1313;141068;-59
2021/12/10 03:48:41;;;;;;;28.80;16.90;;;;;;;-2.12;85.86;98127.98;420500;1311;142221;-59
2021/12/10 03:58:49;;;;;;;26.80;17.40;;;;;;;-2.13;85.79;98126.80;427278;1313;142186;-58
2021/12/10 04:08:56;;;;;;;32.30;18.60;;;;;;;-2.13;85.92;98112.77;433216;1313;143527;-59
2021/12/10 04:19:06;;;;;;;27.70;17.20;;;;;;;-2.08;86.00;98101.41;423679;1310;141402;-58
2021/12/10 04:29:12;;;;;;;22.70;15.00;;;;;;;-2.00;85.95;98092.21;434038;1310;140883;-59
2021/12/10 04:39:19;;;;;;;30.00;16.40;;;;;;;-1.96;86.04;98087.79;424911;1313;141800;-59
2021/12/10 04:49:25;;;;;;;24.70;16.20;;;;;;;-1.97;85.82;98095.36;430298;1311;148450;-60
2021/12/10 04:59:33;;;;;;;26.50;17.20;;;;;;;-1.96;86.06;98093.27;426375;1312;194800;-58
2021/12/10 05:09:40;;;;;;;31.00;18.00;;;;;;;-1.96;85.93;98090.54;434281;1312;142815;-60
2021/12/10 05:19:47;;;;;;;26.50;16.40;;;;;;;-1.99;85.95;98085.64;434761;1312;142967;-59
2021/12/10 05:29:53;;;;;;;28.40;17.40;;;;;;;-2.00;86.06;98078.33;432957;1312;142080;-59
2021/12/10 05:39:59;;;;;;;32.10;20.00;;;;;;;-1.99;86.02;98090.97;435061;1309;142417;-58
2021/12/10 05:50:08;;;;;;;31.50;20.00;;;;;;;-1.98;86.16;98078.41;434007;1310;141931;-59
2021/12/10 06:00:18;;;;;;;32.10;20.20;;;;;;;-2.01;86.22;98089.84;428857;1312;145199;-58
2021/12/10 06:10:24;;;;;;;37.70;21.80;;;;;;;-1.98;86.24;98072.92;432241;1313;141525;-58
2021/12/10 06:20:34;;;;;;;32.60;19.70;;;;;;;-1.97;86.08;98074.09;433786;1312;142225;-59
2021/12/10 06:30:43;;;;;;;33.80;20.30;;;;;;;-1.98;86.26;98075.52;433191;1312;142452;-59
2021/12/10 06:40:49;;;;;;;33.40;22.30;;;;;;;-1.97;86.42;98073.74;431702;1311;143611;-60
2021/12/10 06:50:59;;;;;;;35.10;21.90;;;;;;;-1.95;86.28;98075.41;433002;1312;142883;-59
2021/12/10 07:01:11;;;;;;;36.20;21.90;;;;;;;-1.97;86.21;98075.98;435018;1312;142137;-58
2021/12/10 07:11:20;;;;;;;39.10;23.50;;;;;;;-1.88;86.28;98085.77;434032;1312;142267;-59
2021/12/10 07:21:29;;;;;;;35.20;22.50;;;;;;;-1.69;86.11;98090.56;421165;1312;141605;-59
2021/12/10 07:31:36;;;;;;;40.00;25.70;;;;;;;-1.62;85.94;98100.05;435014;1307;141597;-59
2021/12/10 07:41:42;;;;;;;36.60;24.20;;;;;;;-1.55;85.87;98103.39;434195;1311;142073;-59
2021/12/10 07:51:50;;;;;;;42.80;24.00;;;;;;;-1.36;85.36;98097.87;425406;1311;142357;-58
2021/12/10 08:01:55;;;;;;;44.70;27.80;;;;;;;-1.27;85.11;98100.96;432563;1312;143492;-59
2021/12/10 08:12:02;;;;;;;38.80;25.90;;;;;;;-1.22;84.71;98101.11;418976;1311;142987;-58
2021/12/10 08:22:08;;;;;;;41.80;27.10;;;;;;;-1.27;84.46;98107.30;419141;1312;141425;-59
2021/12/10 08:32:21;;;;;;;37.70;26.60;;;;;;;-1.22;84.45;98108.32;432682;1311;142789;-57
2021/12/10 08:42:28;;;;;;;43.00;27.10;;;;;;;-1.13;84.11;98103.14;429943;1312;145152;-61
2021/12/10 08:52:35;;;;;;;45.50;30.00;;;;;;;-1.00;84.24;98104.35;430805;1306;142450;-64
2021/12/10 09:02:41;;;;;;;50.30;30.00;;;;;;;-0.72;84.13;98100.13;434186;1309;141234;-63
2021/12/10 09:12:47;;;;;;;52.20;33.70;;;;;;;-0.40;83.21;98103.60;434110;1312;141847;-67
2021/12/10 09:22:54;;;;;;;56.80;36.10;;;;;;;-0.36;82.67;98115.13;433754;1312;141698;-67
2021/12/10 09:33:01;;;;;;;61.50;34.80;;;;;;;-0.44;82.47;98113.92;433318;1307;142847;-66
2021/12/10 09:43:10;;;;;;;74.30;42.90;;;;;;;-0.54;82.72;98128.94;434826;1307;141796;-61
2021/12/10 09:53:17;;;;;;;58.50;38.70;;;;;;;-0.44;82.85;98130.77;435354;1307;141155;-62
2021/12/10 10:03:26;;;;;;;60.60;33.30;;;;;;;-0.33;82.68;98119.63;434696;1312;141367;-63
2021/12/10 10:13:35;;;;;;;56.70;34.90;;;;;;;-0.32;82.48;98110.29;421454;1312;141128;-63
2021/12/10 10:23:43;;;;;;;53.60;35.00;;;;;;;-0.29;82.44;98093.30;433966;1313;141591;-63
2021/12/10 10:33:53;;;;;;;57.80;32.00;;;;;;;-0.48;82.30;98091.54;433665;1312;141829;-65
2021/12/10 10:44:00;;;;;;;34.60;23.00;;;;;;;-0.63;82.50;98093.20;433533;1312;141777;-71
2021/12/10 10:54:09;;;;;;;34.00;22.20;;;;;;;-0.45;82.28;98085.39;432992;1312;142648;-67
2021/12/10 11:04:25;;;;;;;40.90;25.30;;;;;;;-0.16;82.20;98085.36;433541;1312;142065;-65
2021/12/10 11:14:37;;;;;;;28.90;19.40;;;;;;;-0.07;81.68;98099.23;435155;1310;141834;-60
2021/12/10 11:24:46;;;;;;;25.80;19.90;;;;;;;-0.09;81.75;98118.41;427922;1313;141572;-63
2021/12/10 11:34:57;;;;;;;25.70;16.70;;;;;;;-0.12;81.46;98112.54;430431;1308;309449;-61
2021/12/10 11:45:28;;;;;;;24.60;17.80;;;;;;;0.11;81.36;98101.91;423980;1312;142515;-65
2021/12/10 11:55:35;;;;;;;26.70;18.30;;;;;;;0.23;80.79;98112.87;430942;1312;141041;-69
2021/12/10 12:05:45;;;;;;;23.40;17.60;;;;;;;0.55;80.70;98108.83;434077;1313;141873;-73
2021/12/10 12:15:54;;;;;;;29.50;18.10;;;;;;;0.74;80.53;98113.45;419589;1312;141809;-61
2021/12/10 12:26:05;;;;;;;26.40;19.00;;;;;;;1.18;80.35;98102.42;421851;1311;141126;-68
2021/12/10 12:36:37;;;;;;;26.10;17.10;;;;;;;1.70;79.29;98107.56;420761;1312;141159;-63
2021/12/10 12:47:08;;;;;;;26.00;17.20;;;;;;;1.45;78.63;98106.79;424186;1312;141549;-70
2021/12/10 12:57:15;;;;;;;20.00;15.80;;;;;;;1.14;78.66;98110.19;430144;1312;141108;-59
2021/12/10 13:07:41;;;;;;;20.50;15.70;;;;;;;0.87;78.73;98120.27;434995;1312;141492;-67
2021/12/10 13:17:50;;;;;;;22.50;16.70;;;;;;;0.66;78.76;98123.48;435381;1312;142310;-60
2021/12/10 13:27:59;;;;;;;20.50;15.40;;;;;;;0.57;78.63;98124.61;435339;1311;141882;-60
2021/12/10 13:38:07;;;;;;;20.30;13.60;;;;;;;0.39;78.63;98118.36;430414;1312;142548;-63
2021/12/10 13:48:13;;;;;;;;;;;;;;;0.27;78.88;98114.77;434110;1312;143754;-63
2021/12/10 13:58:26;;;;;;;21.60;14.60;;;;;;;0.15;79.10;98122.20;434313;1312;127592;-62
2021/12/10 14:08:34;;;;;;;18.40;13.30;;;;;;;-0.01;79.23;98135.79;433818;1312;141980;-63
2021/12/10 14:18:44;;;;;;;19.30;14.30;;;;;;;-0.41;79.17;98134.06;434275;1312;141941;-62
2021/12/10 14:29:16;;;;;;;23.70;17.00;;;;;;;-0.81;79.98;98138.27;419428;1312;143174;-60
2021/12/10 14:39:38;;;;;;;22.70;17.20;;;;;;;-1.12;80.43;98136.62;432974;1309;142031;-60
2021/12/10 14:50:05;;;;;;;33.40;24.00;;;;;;;-1.37;80.47;98146.83;435327;1312;141599;-60
2021/12/10 15:00:41;;;;;;;36.10;25.30;;;;;;;-1.60;81.13;98159.39;433387;1312;142780;-60
2021/12/10 15:11:12;;;;;;;41.60;27.90;;;;;;;-1.81;81.58;98159.95;432491;1313;141301;-61
2021/12/10 15:21:50;;;;;;;45.90;30.60;;;;;;;-1.96;82.00;98164.11;434595;1311;141468;-60
2021/12/10 15:32:10;;;;;;;51.60;34.10;;;;;;;-2.11;82.39;98159.15;430926;1313;142182;-60
2021/12/10 15:42:37;;;;;;;46.70;32.60;;;;;;;-2.19;82.71;98156.35;432876;1312;142075;-61
2021/12/10 15:52:44;;;;;;;54.20;36.30;;;;;;;-2.27;82.87;98163.14;419335;1312;141204;-60
2021/12/10 16:02:51;;;;;;;53.50;36.80;;;;;;;-2.36;83.21;98170.80;421565;1312;141906;-58
2021/12/10 16:13:01;;;;;;;57.50;38.30;;;;;;;-2.45;83.49;98171.98;428592;1313;141752;-61
2021/12/10 16:23:11;;;;;;;54.90;34.60;;;;;;;-2.52;83.65;98172.36;434334;1310;142332;-61
2021/12/10 16:33:19;;;;;;;65.70;39.30;;;;;;;-2.61;83.87;98167.16;433073;1312;142111;-61
2021/12/10 16:43:26;;;;;;;67.10;41.30;;;;;;;-2.68;83.92;98177.85;433710;1312;142372;-63
2021/12/10 16:53:38;;;;;;;73.70;50.40;;;;;;;-2.80;84.07;98179.93;434924;1312;141537;-60
2021/12/10 17:03:46;;;;;;;80.00;51.50;;;;;;;-2.91;84.30;98182.54;428304;1312;141978;-61
2021/12/10 17:13:55;;;;;;;59.80;40.70;;;;;;;-3.04;84.43;98188.09;423669;1313;141357;-65
2021/12/10 17:24:06;;;;;;;60.20;38.40;;;;;;;-3.14;84.72;98189.23;434626;1313;144707;-61
2021/12/10 17:34:16;;;;;;;65.90;40.40;;;;;;;-3.23;84.77;98192.58;434882;1312;142567;-63
2021/12/10 17:44:23;;;;;;;62.00;42.20;;;;;;;-3.36;84.98;98192.96;434161;1312;145310;-64
2021/12/10 17:54:33;;;;;;;62.30;41.80;;;;;;;-3.44;85.11;98200.73;434452;1306;142626;-61
2021/12/10 18:04:45;;;;;;;62.40;43.70;;;;;;;-3.52;85.13;98204.88;433417;1310;141928;-60
2021/12/10 18:14:56;;;;;;;61.30;40.20;;;;;;;-3.54;85.50;98214.19;432901;1310;141681;-61
2021/12/10 18:25:05;;;;;;;59.80;37.40;;;;;;;-3.63;85.36;98213.76;432236;1311;142031;-61
2021/12/10 18:35:14;;;;;;;70.90;45.00;;;;;;;-3.76;85.45;98225.41;428977;1312;141227;-60
2021/12/10 18:45:24;;;;;;;85.40;52.60;;;;;;;-3.84;85.74;98232.13;434510;1314;141414;-60
2021/12/10 18:55:34;;;;;;;72.90;45.40;;;;;;;-3.90;86.17;98245.45;433166;1313;142756;-59
2021/12/10 19:05:44;;;;;;;59.30;33.40;;;;;;;-3.88;86.16;98263.86;435318;1307;142953;-60
2021/12/10 19:15:55;;;;;;;53.50;31.40;;;;;;;-3.95;86.09;98281.14;429904;1317;141618;-60
2021/12/10 19:26:07;;;;;;;63.20;34.50;;;;;;;-3.97;86.37;98286.84;434083;1312;142233;-60
2021/12/10 19:36:16;;;;;;;59.90;35.50;;;;;;;-3.93;86.55;98289.62;433207;1315;199831;-59
2021/12/10 19:46:28;;;;;;;62.90;36.30;;;;;;;-3.85;86.82;98297.63;434594;1315;141746;-62
2021/12/10 19:56:38;;;;;;;55.50;32.10;;;;;;;-3.77;86.91;98309.91;435266;1313;142060;-61
2021/12/10 20:06:49;;;;;;;56.00;32.50;;;;;;;-3.80;86.81;98322.29;428486;1313;141669;-60
2021/12/10 20:17:01;;;;;;;62.10;33.90;;;;;;;-3.82;86.96;98330.06;434826;1313;143599;-60
2021/12/10 20:27:16;;;;;;;53.90;31.90;;;;;;;-3.85;87.01;98329.45;434531;1315;142611;-60
2021/12/10 20:37:30;;;;;;;53.40;32.50;;;;;;;-3.87;87.01;98331.20;434316;1313;141631;-60
2021/12/10 20:47:42;;;;;;;55.70;33.60;;;;;;;-3.86;87.10;98340.76;428125;1312;142572;-61
2021/12/10 20:57:50;;;;;;;54.80;32.20;;;;;;;-3.91;86.99;98348.58;433985;1313;141970;-61
2021/12/10 21:08:01;;;;;;;57.90;34.00;;;;;;;-3.99;87.08;98354.07;434117;1313;142744;-60
2021/12/10 21:18:10;;;;;;;62.20;35.00;;;;;;;-4.01;87.05;98359.58;432587;1313;142137;-60
2021/12/10 21:28:20;;;;;;;63.60;36.20;;;;;;;-3.99;87.26;98367.07;425447;1312;141963;-61
2021/12/10 21:38:33;;;;;;;61.50;34.50;;;;;;;-4.03;87.18;98364.42;434899;1313;143053;-60
2021/12/10 21:48:45;;;;;;;67.60;36.30;;;;;;;-4.10;87.21;98372.63;433413;1312;143074;-60
2021/12/10 21:58:57;;;;;;;66.20;35.30;;;;;;;-4.23;87.05;98385.39;433409;1313;142244;-60
2021/12/10 22:09:10;;;;;;;68.20;39.60;;;;;;;-4.31;87.01;98394.30;434159;1312;141720;-61
2021/12/10 22:19:20;;;;;;;77.00;41.00;;;;;;;-4.42;87.02;98397.79;434934;1313;141363;-60
2021/12/10 22:29:31;;;;;;;68.40;38.30;;;;;;;-4.54;87.04;98401.98;435265;1312;142966;-60
2021/12/10 22:39:50;;;;;;;68.20;40.50;;;;;;;-4.64;87.03;98400.84;422437;1313;141931;-62
2021/12/10 22:50:01;;;;;;;65.80;37.70;;;;;;;-4.64;87.21;98392.44;424998;1309;142251;-63
2021/12/10 23:00:17;;;;;;;64.80;39.80;;;;;;;-4.59;87.19;98396.96;433026;1312;142287;-64
2021/12/10 23:10:29;;;;;;;67.80;40.80;;;;;;;-4.51;87.12;98403.27;434621;1312;141867;-63
2021/12/10 23:20:56;;;;;;;67.20;38.20;;;;;;;-4.51;86.95;98421.23;433597;1312;142342;-68
2021/12/10 23:31:08;;;;;;;62.20;37.20;;;;;;;-4.50;86.80;98432.83;433862;1312;143052;-68
2021/12/10 23:41:20;;;;;;;64.70;37.10;;;;;;;-4.49;86.72;98441.66;435028;1312;141715;-68
2021/12/10 23:51:31;;;;;;;60.90;35.60;;;;;;;-4.52;86.64;98453.54;432562;1312;144305;-69
